Morganfield, Kentucky
Current Conditions -  °F | °C
As of 4:35 AM on Saturday 22 Nov 2014 (Local Time) from KEHR Reporting Station
Overcast Overcast  
Wind Chill: 41°   Ceiling: 7000
Heat Index: 46°   Visibility: 10mi
Dew Point: 37°   Wind: 10mph
Humidity: 71%   Direction: 180°S
Pressure: 30.24"   Gusts: NA
Location:  37.68°N, 87.92°W
Report Text: KEHR 221035Z AUTO 18009KT 10SM BKN070 OVC090 08/03 A3024 RMK AO1
Loading
Personal Weather Stations






























Interactive Weather Map New forecast layout! Learn more

10-Day Weather Forecast

Advertisements
Track Severe Weather on mobile